sensor_id;sensor_type;location;lat;lon;timestamp;P1;durP1;ratioP1;P2;durP2;ratioP2
66830;SDS011;53739;44.224;22.528;2024-03-02T00:01:09;79.32;;;40.45;;
66830;SDS011;53739;44.224;22.528;2024-03-02T00:03:38;132.10;;;64.63;;
66830;SDS011;53739;44.224;22.528;2024-03-02T00:06:05;70.70;;;38.08;;
66830;SDS011;53739;44.224;22.528;2024-03-02T00:08:32;77.82;;;42.25;;
66830;SDS011;53739;44.224;22.528;2024-03-02T00:10:59;87.93;;;47.08;;
66830;SDS011;53739;44.224;22.528;2024-03-02T00:13:25;103.15;;;53.63;;
66830;SDS011;53739;44.224;22.528;2024-03-02T00:15:52;122.70;;;62.08;;
66830;SDS011;53739;44.224;22.528;2024-03-02T00:18:40;124.55;;;71.88;;
66830;SDS011;53739;44.224;22.528;2024-03-02T00:21:05;84.25;;;48.08;;
66830;SDS011;53739;44.224;22.528;2024-03-02T00:23:34;68.40;;;42.05;;
66830;SDS011;53739;44.224;22.528;2024-03-02T00:26:01;71.15;;;41.08;;
66830;SDS011;53739;44.224;22.528;2024-03-02T00:28:34;84.22;;;50.50;;
66830;SDS011;53739;44.224;22.528;2024-03-02T00:31:07;71.40;;;43.38;;
66830;SDS011;53739;44.224;22.528;2024-03-02T00:33:39;56.10;;;30.77;;
66830;SDS011;53739;44.224;22.528;2024-03-02T00:36:06;60.67;;;31.05;;
66830;SDS011;53739;44.224;22.528;2024-03-02T00:38:33;58.65;;;32.05;;
66830;SDS011;53739;44.224;22.528;2024-03-02T00:41:01;105.40;;;61.83;;
66830;SDS011;53739;44.224;22.528;2024-03-02T00:43:47;89.30;;;47.80;;
66830;SDS011;53739;44.224;22.528;2024-03-02T00:46:19;90.80;;;39.85;;
66830;SDS011;53739;44.224;22.528;2024-03-02T00:48:58;94.03;;;44.67;;
66830;SDS011;53739;44.224;22.528;2024-03-02T00:51:26;118.85;;;53.70;;
66830;SDS011;53739;44.224;22.528;2024-03-02T00:53:53;62.08;;;33.00;;
66830;SDS011;53739;44.224;22.528;2024-03-02T00:56:22;60.20;;;26.20;;
66830;SDS011;53739;44.224;22.528;2024-03-02T00:58:49;54.47;;;25.27;;
66830;SDS011;53739;44.224;22.528;2024-03-02T01:01:16;65.10;;;30.17;;
66830;SDS011;53739;44.224;22.528;2024-03-02T01:03:42;134.30;;;58.55;;
66830;SDS011;53739;44.224;22.528;2024-03-02T01:06:08;93.03;;;43.97;;
66830;SDS011;53739;44.224;22.528;2024-03-02T01:08:35;75.30;;;37.03;;
66830;SDS011;53739;44.224;22.528;2024-03-02T01:11:02;109.75;;;47.28;;
66830;SDS011;53739;44.224;22.528;2024-03-02T01:13:28;75.50;;;36.25;;
66830;SDS011;53739;44.224;22.528;2024-03-02T01:15:54;84.45;;;41.42;;
66830;SDS011;53739;44.224;22.528;2024-03-02T01:18:20;91.93;;;44.90;;
66830;SDS011;53739;44.224;22.528;2024-03-02T01:20:47;69.72;;;32.40;;
66830;SDS011;53739;44.224;22.528;2024-03-02T01:23:16;70.00;;;33.83;;
66830;SDS011;53739;44.224;22.528;2024-03-02T01:25:42;67.95;;;34.53;;
66830;SDS011;53739;44.224;22.528;2024-03-02T01:28:08;64.22;;;34.42;;
66830;SDS011;53739;44.224;22.528;2024-03-02T01:30:34;57.22;;;29.10;;
66830;SDS011;53739;44.224;22.528;2024-03-02T01:33:00;120.85;;;52.95;;
66830;SDS011;53739;44.224;22.528;2024-03-02T01:35:27;83.10;;;42.22;;
66830;SDS011;53739;44.224;22.528;2024-03-02T01:37:53;99.68;;;48.03;;
66830;SDS011;53739;44.224;22.528;2024-03-02T01:40:19;97.43;;;46.42;;
66830;SDS011;53739;44.224;22.528;2024-03-02T01:42:46;97.47;;;45.70;;
66830;SDS011;53739;44.224;22.528;2024-03-02T01:45:12;63.05;;;33.22;;
66830;SDS011;53739;44.224;22.528;2024-03-02T01:47:38;75.13;;;36.72;;
66830;SDS011;53739;44.224;22.528;2024-03-02T01:50:04;78.78;;;34.67;;
66830;SDS011;53739;44.224;22.528;2024-03-02T01:52:30;92.20;;;44.88;;
66830;SDS011;53739;44.224;22.528;2024-03-02T01:54:56;66.20;;;31.83;;
66830;SDS011;53739;44.224;22.528;2024-03-02T01:57:22;71.70;;;34.05;;
66830;SDS011;53739;44.224;22.528;2024-03-02T01:59:49;76.25;;;34.58;;
66830;SDS011;53739;44.224;22.528;2024-03-02T02:02:16;86.28;;;41.47;;
66830;SDS011;53739;44.224;22.528;2024-03-02T02:04:42;82.75;;;41.53;;
66830;SDS011;53739;44.224;22.528;2024-03-02T02:07:09;75.43;;;33.45;;
66830;SDS011;53739;44.224;22.528;2024-03-02T02:09:35;66.57;;;32.70;;
66830;SDS011;53739;44.224;22.528;2024-03-02T02:12:02;89.45;;;38.90;;
66830;SDS011;53739;44.224;22.528;2024-03-02T02:14:29;115.30;;;50.22;;
66830;SDS011;53739;44.224;22.528;2024-03-02T02:16:56;112.35;;;47.42;;
66830;SDS011;53739;44.224;22.528;2024-03-02T02:19:22;71.13;;;31.35;;
66830;SDS011;53739;44.224;22.528;2024-03-02T02:21:48;89.38;;;38.83;;
66830;SDS011;53739;44.224;22.528;2024-03-02T02:24:14;103.32;;;43.63;;
66830;SDS011;53739;44.224;22.528;2024-03-02T02:26:40;59.97;;;29.35;;
66830;SDS011;53739;44.224;22.528;2024-03-02T02:29:06;99.88;;;45.08;;
66830;SDS011;53739;44.224;22.528;2024-03-02T02:31:41;87.70;;;40.75;;
66830;SDS011;53739;44.224;22.528;2024-03-02T02:34:07;60.38;;;30.48;;
66830;SDS011;53739;44.224;22.528;2024-03-02T02:36:34;72.80;;;38.78;;
66830;SDS011;53739;44.224;22.528;2024-03-02T02:39:03;54.83;;;29.35;;
66830;SDS011;53739;44.224;22.528;2024-03-02T02:41:30;97.55;;;47.85;;
66830;SDS011;53739;44.224;22.528;2024-03-02T02:43:56;82.45;;;42.70;;
66830;SDS011;53739;44.224;22.528;2024-03-02T02:46:22;93.03;;;46.83;;
66830;SDS011;53739;44.224;22.528;2024-03-02T02:48:48;96.00;;;49.40;;
66830;SDS011;53739;44.224;22.528;2024-03-02T02:51:16;76.25;;;36.25;;
66830;SDS011;53739;44.224;22.528;2024-03-02T02:53:42;117.20;;;54.80;;
66830;SDS011;53739;44.224;22.528;2024-03-02T02:56:09;121.05;;;58.38;;
66830;SDS011;53739;44.224;22.528;2024-03-02T02:58:35;78.60;;;40.92;;
66830;SDS011;53739;44.224;22.528;2024-03-02T03:01:01;86.05;;;43.53;;
66830;SDS011;53739;44.224;22.528;2024-03-02T03:03:27;64.75;;;33.65;;
66830;SDS011;53739;44.224;22.528;2024-03-02T03:05:53;75.07;;;37.85;;
66830;SDS011;53739;44.224;22.528;2024-03-02T03:08:20;42.85;;;22.35;;
66830;SDS011;53739;44.224;22.528;2024-03-02T03:10:48;62.13;;;34.15;;
66830;SDS011;53739;44.224;22.528;2024-03-02T03:13:14;55.75;;;29.55;;
66830;SDS011;53739;44.224;22.528;2024-03-02T03:15:40;60.22;;;32.67;;
66830;SDS011;53739;44.224;22.528;2024-03-02T03:18:06;67.25;;;37.58;;
66830;SDS011;53739;44.224;22.528;2024-03-02T03:20:33;59.15;;;32.10;;
66830;SDS011;53739;44.224;22.528;2024-03-02T03:22:59;59.15;;;34.15;;
66830;SDS011;53739;44.224;22.528;2024-03-02T03:25:25;54.58;;;28.58;;
66830;SDS011;53739;44.224;22.528;2024-03-02T03:27:51;66.22;;;36.45;;
66830;SDS011;53739;44.224;22.528;2024-03-02T03:30:18;55.80;;;32.28;;
66830;SDS011;53739;44.224;22.528;2024-03-02T03:32:44;56.55;;;28.55;;
66830;SDS011;53739;44.224;22.528;2024-03-02T03:35:10;59.45;;;30.27;;
66830;SDS011;53739;44.224;22.528;2024-03-02T03:37:38;63.75;;;37.58;;
66830;SDS011;53739;44.224;22.528;2024-03-02T03:40:04;50.03;;;26.70;;
66830;SDS011;53739;44.224;22.528;2024-03-02T03:42:37;61.63;;;32.28;;
66830;SDS011;53739;44.224;22.528;2024-03-02T03:45:03;52.00;;;25.17;;
66830;SDS011;53739;44.224;22.528;2024-03-02T03:47:31;56.63;;;27.98;;
66830;SDS011;53739;44.224;22.528;2024-03-02T03:49:57;75.95;;;34.83;;
66830;SDS011;53739;44.224;22.528;2024-03-02T03:52:23;75.75;;;35.40;;
66830;SDS011;53739;44.224;22.528;2024-03-02T03:54:49;67.30;;;29.60;;
66830;SDS011;53739;44.224;22.528;2024-03-02T03:57:16;53.50;;;23.45;;
66830;SDS011;53739;44.224;22.528;2024-03-02T03:59:42;52.00;;;23.15;;
66830;SDS011;53739;44.224;22.528;2024-03-02T04:02:09;49.78;;;23.40;;
66830;SDS011;53739;44.224;22.528;2024-03-02T04:04:36;49.15;;;24.25;;
66830;SDS011;53739;44.224;22.528;2024-03-02T04:07:02;51.72;;;24.88;;
66830;SDS011;53739;44.224;22.528;2024-03-02T04:09:29;59.13;;;26.88;;
66830;SDS011;53739;44.224;22.528;2024-03-02T04:11:55;48.72;;;23.55;;
66830;SDS011;53739;44.224;22.528;2024-03-02T04:14:21;48.97;;;25.77;;
66830;SDS011;53739;44.224;22.528;2024-03-02T04:16:47;50.65;;;24.00;;
66830;SDS011;53739;44.224;22.528;2024-03-02T04:19:13;60.22;;;25.10;;
66830;SDS011;53739;44.224;22.528;2024-03-02T04:21:39;46.20;;;21.25;;
66830;SDS011;53739;44.224;22.528;2024-03-02T04:24:06;66.72;;;27.77;;
66830;SDS011;53739;44.224;22.528;2024-03-02T04:26:32;61.92;;;26.05;;
66830;SDS011;53739;44.224;22.528;2024-03-02T04:28:58;67.43;;;30.92;;
66830;SDS011;53739;44.224;22.528;2024-03-02T04:31:24;58.90;;;27.10;;
66830;SDS011;53739;44.224;22.528;2024-03-02T04:33:50;65.40;;;28.58;;
66830;SDS011;53739;44.224;22.528;2024-03-02T04:36:16;52.25;;;26.67;;
66830;SDS011;53739;44.224;22.528;2024-03-02T04:38:42;70.13;;;37.08;;
66830;SDS011;53739;44.224;22.528;2024-03-02T04:41:08;63.10;;;34.95;;
66830;SDS011;53739;44.224;22.528;2024-03-02T04:43:35;46.00;;;24.17;;
66830;SDS011;53739;44.224;22.528;2024-03-02T04:46:01;49.70;;;23.77;;
66830;SDS011;53739;44.224;22.528;2024-03-02T04:48:27;49.90;;;24.77;;
66830;SDS011;53739;44.224;22.528;2024-03-02T04:50:53;41.50;;;21.20;;
66830;SDS011;53739;44.224;22.528;2024-03-02T04:53:19;31.90;;;18.70;;
66830;SDS011;53739;44.224;22.528;2024-03-02T04:55:45;28.73;;;16.58;;
66830;SDS011;53739;44.224;22.528;2024-03-02T04:58:38;25.10;;;14.43;;
66830;SDS011;53739;44.224;22.528;2024-03-02T05:01:04;31.50;;;14.98;;
66830;SDS011;53739;44.224;22.528;2024-03-02T05:03:30;33.15;;;15.20;;
66830;SDS011;53739;44.224;22.528;2024-03-02T05:05:56;28.25;;;15.50;;
66830;SDS011;53739;44.224;22.528;2024-03-02T05:08:22;56.72;;;28.70;;
66830;SDS011;53739;44.224;22.528;2024-03-02T05:10:48;38.75;;;21.25;;
66830;SDS011;53739;44.224;22.528;2024-03-02T05:13:14;44.83;;;24.13;;
66830;SDS011;53739;44.224;22.528;2024-03-02T05:15:42;33.08;;;18.75;;
66830;SDS011;53739;44.224;22.528;2024-03-02T05:18:08;39.90;;;21.38;;
66830;SDS011;53739;44.224;22.528;2024-03-02T05:20:34;48.97;;;30.13;;
66830;SDS011;53739;44.224;22.528;2024-03-02T05:23:00;40.38;;;23.77;;
66830;SDS011;53739;44.224;22.528;2024-03-02T05:25:27;29.73;;;17.77;;
66830;SDS011;53739;44.224;22.528;2024-03-02T05:27:53;37.80;;;18.95;;
66830;SDS011;53739;44.224;22.528;2024-03-02T05:30:19;33.05;;;16.17;;
66830;SDS011;53739;44.224;22.528;2024-03-02T05:32:45;29.90;;;15.00;;
66830;SDS011;53739;44.224;22.528;2024-03-02T05:35:11;27.88;;;18.13;;
66830;SDS011;53739;44.224;22.528;2024-03-02T05:37:37;29.88;;;15.45;;
66830;SDS011;53739;44.224;22.528;2024-03-02T05:40:04;29.58;;;17.58;;
66830;SDS011;53739;44.224;22.528;2024-03-02T05:42:30;25.52;;;14.93;;
66830;SDS011;53739;44.224;22.528;2024-03-02T05:44:56;26.08;;;12.80;;
66830;SDS011;53739;44.224;22.528;2024-03-02T05:47:23;29.85;;;14.82;;
66830;SDS011;53739;44.224;22.528;2024-03-02T05:49:49;29.48;;;14.13;;
66830;SDS011;53739;44.224;22.528;2024-03-02T05:52:15;32.63;;;14.70;;
66830;SDS011;53739;44.224;22.528;2024-03-02T05:54:41;29.17;;;15.10;;
66830;SDS011;53739;44.224;22.528;2024-03-02T05:57:07;22.52;;;15.02;;
66830;SDS011;53739;44.224;22.528;2024-03-02T05:59:54;31.88;;;16.60;;
66830;SDS011;53739;44.224;22.528;2024-03-02T06:02:20;33.33;;;16.17;;
66830;SDS011;53739;44.224;22.528;2024-03-02T06:04:46;34.88;;;15.75;;
66830;SDS011;53739;44.224;22.528;2024-03-02T06:07:12;31.15;;;15.25;;
66830;SDS011;53739;44.224;22.528;2024-03-02T06:09:38;28.23;;;13.98;;
66830;SDS011;53739;44.224;22.528;2024-03-02T06:12:04;33.25;;;16.30;;
66830;SDS011;53739;44.224;22.528;2024-03-02T06:14:30;43.95;;;19.00;;
66830;SDS011;53739;44.224;22.528;2024-03-02T06:16:56;47.97;;;22.95;;
66830;SDS011;53739;44.224;22.528;2024-03-02T06:19:22;47.42;;;21.20;;
66830;SDS011;53739;44.224;22.528;2024-03-02T06:21:49;34.53;;;19.40;;
66830;SDS011;53739;44.224;22.528;2024-03-02T06:24:15;38.53;;;20.70;;
66830;SDS011;53739;44.224;22.528;2024-03-02T06:26:41;40.33;;;22.30;;
66830;SDS011;53739;44.224;22.528;2024-03-02T06:29:07;40.05;;;21.20;;
66830;SDS011;53739;44.224;22.528;2024-03-02T06:36:53;37.95;;;18.30;;
66830;SDS011;53739;44.224;22.528;2024-03-02T06:39:19;35.20;;;20.95;;
66830;SDS011;53739;44.224;22.528;2024-03-02T06:41:45;38.15;;;18.63;;
66830;SDS011;53739;44.224;22.528;2024-03-02T06:44:15;40.35;;;21.05;;
66830;SDS011;53739;44.224;22.528;2024-03-02T06:46:41;59.42;;;27.13;;
66830;SDS011;53739;44.224;22.528;2024-03-02T06:49:07;87.07;;;36.70;;
66830;SDS011;53739;44.224;22.528;2024-03-02T06:51:35;62.78;;;32.47;;
66830;SDS011;53739;44.224;22.528;2024-03-02T06:54:01;57.67;;;29.98;;
66830;SDS011;53739;44.224;22.528;2024-03-02T06:56:45;51.17;;;25.67;;
66830;SDS011;53739;44.224;22.528;2024-03-02T06:59:29;64.32;;;34.75;;
66830;SDS011;53739;44.224;22.528;2024-03-02T07:01:55;55.08;;;29.17;;
66830;SDS011;53739;44.224;22.528;2024-03-02T07:04:22;71.60;;;35.47;;
66830;SDS011;53739;44.224;22.528;2024-03-02T07:06:48;41.10;;;22.88;;
66830;SDS011;53739;44.224;22.528;2024-03-02T07:09:14;40.55;;;21.65;;
66830;SDS011;53739;44.224;22.528;2024-03-02T07:11:40;44.13;;;21.30;;
66830;SDS011;53739;44.224;22.528;2024-03-02T07:14:06;36.53;;;19.85;;
66830;SDS011;53739;44.224;22.528;2024-03-02T07:16:32;38.35;;;22.02;;
66830;SDS011;53739;44.224;22.528;2024-03-02T07:18:59;38.78;;;21.25;;
66830;SDS011;53739;44.224;22.528;2024-03-02T07:21:27;35.50;;;18.13;;
66830;SDS011;53739;44.224;22.528;2024-03-02T07:23:53;53.15;;;26.33;;
66830;SDS011;53739;44.224;22.528;2024-03-02T07:26:19;55.08;;;26.83;;
66830;SDS011;53739;44.224;22.528;2024-03-02T07:28:46;53.22;;;26.05;;
66830;SDS011;53739;44.224;22.528;2024-03-02T07:31:15;44.63;;;21.35;;
66830;SDS011;53739;44.224;22.528;2024-03-02T07:33:43;42.38;;;21.45;;
66830;SDS011;53739;44.224;22.528;2024-03-02T07:36:10;51.83;;;24.33;;
66830;SDS011;53739;44.224;22.528;2024-03-02T07:38:37;48.15;;;24.83;;
66830;SDS011;53739;44.224;22.528;2024-03-02T07:41:03;52.65;;;26.83;;
66830;SDS011;53739;44.224;22.528;2024-03-02T07:43:29;64.45;;;32.60;;
66830;SDS011;53739;44.224;22.528;2024-03-02T07:45:58;80.78;;;39.38;;
66830;SDS011;53739;44.224;22.528;2024-03-02T07:48:24;43.10;;;24.58;;
66830;SDS011;53739;44.224;22.528;2024-03-02T07:50:50;55.25;;;33.35;;
66830;SDS011;53739;44.224;22.528;2024-03-02T07:53:16;54.95;;;29.60;;
66830;SDS011;53739;44.224;22.528;2024-03-02T07:55:42;40.22;;;20.23;;
66830;SDS011;53739;44.224;22.528;2024-03-02T07:58:09;46.13;;;23.73;;
66830;SDS011;53739;44.224;22.528;2024-03-02T08:00:36;48.05;;;23.75;;
66830;SDS011;53739;44.224;22.528;2024-03-02T08:03:04;51.47;;;25.73;;
66830;SDS011;53739;44.224;22.528;2024-03-02T08:05:31;41.03;;;23.35;;
66830;SDS011;53739;44.224;22.528;2024-03-02T08:07:57;52.00;;;24.48;;
66830;SDS011;53739;44.224;22.528;2024-03-02T08:10:23;53.53;;;27.88;;
66830;SDS011;53739;44.224;22.528;2024-03-02T08:12:50;93.55;;;38.58;;
66830;SDS011;53739;44.224;22.528;2024-03-02T08:15:16;108.88;;;44.35;;
66830;SDS011;53739;44.224;22.528;2024-03-02T08:17:42;106.38;;;52.47;;
66830;SDS011;53739;44.224;22.528;2024-03-02T08:20:14;53.22;;;30.05;;
66830;SDS011;53739;44.224;22.528;2024-03-02T08:22:40;56.08;;;28.45;;
66830;SDS011;53739;44.224;22.528;2024-03-02T08:25:07;64.57;;;32.35;;
66830;SDS011;53739;44.224;22.528;2024-03-02T08:27:33;50.78;;;26.02;;
66830;SDS011;53739;44.224;22.528;2024-03-02T08:29:59;38.00;;;20.05;;
66830;SDS011;53739;44.224;22.528;2024-03-02T08:32:38;61.10;;;32.80;;
66830;SDS011;53739;44.224;22.528;2024-03-02T08:38:26;48.60;;;25.48;;
66830;SDS011;53739;44.224;22.528;2024-03-02T08:40:58;57.17;;;29.55;;
66830;SDS011;53739;44.224;22.528;2024-03-02T08:49:33;89.80;;;35.97;;
66830;SDS011;53739;44.224;22.528;2024-03-02T08:52:09;69.22;;;31.95;;
66830;SDS011;53739;44.224;22.528;2024-03-02T08:54:48;51.65;;;24.30;;
66830;SDS011;53739;44.224;22.528;2024-03-02T08:57:14;49.25;;;26.40;;
66830;SDS011;53739;44.224;22.528;2024-03-02T08:59:40;54.67;;;22.67;;
66830;SDS011;53739;44.224;22.528;2024-03-02T09:02:06;65.68;;;30.95;;
66830;SDS011;53739;44.224;22.528;2024-03-02T09:04:32;47.22;;;21.02;;
66830;SDS011;53739;44.224;22.528;2024-03-02T09:06:59;39.50;;;21.00;;
66830;SDS011;53739;44.224;22.528;2024-03-02T09:09:25;40.65;;;21.80;;
66830;SDS011;53739;44.224;22.528;2024-03-02T09:11:51;32.58;;;16.33;;
66830;SDS011;53739;44.224;22.528;2024-03-02T09:14:20;38.45;;;20.52;;
66830;SDS011;53739;44.224;22.528;2024-03-02T09:16:46;23.63;;;12.63;;
66830;SDS011;53739;44.224;22.528;2024-03-02T09:19:12;36.38;;;18.40;;
66830;SDS011;53739;44.224;22.528;2024-03-02T09:21:38;35.40;;;17.27;;
66830;SDS011;53739;44.224;22.528;2024-03-02T09:24:04;50.38;;;28.67;;
66830;SDS011;53739;44.224;22.528;2024-03-02T09:26:31;36.28;;;17.27;;
66830;SDS011;53739;44.224;22.528;2024-03-02T09:28:57;29.83;;;16.52;;
66830;SDS011;53739;44.224;22.528;2024-03-02T09:31:24;46.58;;;17.88;;
66830;SDS011;53739;44.224;22.528;2024-03-02T09:33:50;26.08;;;13.35;;
66830;SDS011;53739;44.224;22.528;2024-03-02T09:36:16;26.23;;;10.45;;
66830;SDS011;53739;44.224;22.528;2024-03-02T09:38:43;24.83;;;11.45;;
66830;SDS011;53739;44.224;22.528;2024-03-02T09:41:10;37.70;;;13.18;;
66830;SDS011;53739;44.224;22.528;2024-03-02T09:43:36;27.83;;;12.20;;
66830;SDS011;53739;44.224;22.528;2024-03-02T09:46:02;24.17;;;13.35;;
66830;SDS011;53739;44.224;22.528;2024-03-02T09:48:29;29.35;;;14.25;;
66830;SDS011;53739;44.224;22.528;2024-03-02T09:50:55;45.20;;;17.95;;
66830;SDS011;53739;44.224;22.528;2024-03-02T09:53:22;47.22;;;20.17;;
66830;SDS011;53739;44.224;22.528;2024-03-02T09:55:48;38.78;;;18.45;;
66830;SDS011;53739;44.224;22.528;2024-03-02T09:58:14;26.73;;;15.23;;
66830;SDS011;53739;44.224;22.528;2024-03-02T10:00:40;27.55;;;13.90;;
66830;SDS011;53739;44.224;22.528;2024-03-02T10:03:11;28.67;;;15.05;;
66830;SDS011;53739;44.224;22.528;2024-03-02T10:05:38;31.13;;;15.93;;
66830;SDS011;53739;44.224;22.528;2024-03-02T10:08:04;35.15;;;16.70;;
66830;SDS011;53739;44.224;22.528;2024-03-02T10:10:35;39.38;;;20.08;;
66830;SDS011;53739;44.224;22.528;2024-03-02T10:13:05;35.10;;;17.15;;
66830;SDS011;53739;44.224;22.528;2024-03-02T10:15:31;25.08;;;13.57;;
66830;SDS011;53739;44.224;22.528;2024-03-02T10:17:57;20.05;;;10.65;;
66830;SDS011;53739;44.224;22.528;2024-03-02T10:20:26;25.40;;;13.57;;
66830;SDS011;53739;44.224;22.528;2024-03-02T10:22:54;28.38;;;13.88;;
66830;SDS011;53739;44.224;22.528;2024-03-02T10:25:33;46.38;;;20.65;;
66830;SDS011;53739;44.224;22.528;2024-03-02T10:27:59;28.73;;;14.57;;
66830;SDS011;53739;44.224;22.528;2024-03-02T10:30:26;21.42;;;13.40;;
66830;SDS011;53739;44.224;22.528;2024-03-02T10:32:53;40.65;;;20.15;;
66830;SDS011;53739;44.224;22.528;2024-03-02T10:35:20;31.15;;;16.67;;
66830;SDS011;53739;44.224;22.528;2024-03-02T10:37:47;35.33;;;18.70;;
66830;SDS011;53739;44.224;22.528;2024-03-02T10:40:13;24.85;;;14.60;;
66830;SDS011;53739;44.224;22.528;2024-03-02T10:42:43;21.08;;;12.65;;
66830;SDS011;53739;44.224;22.528;2024-03-02T10:45:11;38.88;;;19.65;;
66830;SDS011;53739;44.224;22.528;2024-03-02T10:47:38;26.17;;;15.45;;
66830;SDS011;53739;44.224;22.528;2024-03-02T10:50:22;23.88;;;13.38;;
66830;SDS011;53739;44.224;22.528;2024-03-02T10:52:52;26.33;;;12.65;;
66830;SDS011;53739;44.224;22.528;2024-03-02T10:55:18;30.73;;;16.95;;
66830;SDS011;53739;44.224;22.528;2024-03-02T10:57:51;34.97;;;19.35;;
66830;SDS011;53739;44.224;22.528;2024-03-02T11:00:24;30.13;;;16.13;;
66830;SDS011;53739;44.224;22.528;2024-03-02T11:03:04;27.20;;;15.38;;
66830;SDS011;53739;44.224;22.528;2024-03-02T11:05:36;32.40;;;15.30;;
66830;SDS011;53739;44.224;22.528;2024-03-02T11:08:06;35.13;;;17.90;;
66830;SDS011;53739;44.224;22.528;2024-03-02T11:10:45;30.00;;;14.60;;
66830;SDS011;53739;44.224;22.528;2024-03-02T11:13:16;26.13;;;13.63;;
66830;SDS011;53739;44.224;22.528;2024-03-02T11:15:44;24.55;;;13.00;;
66830;SDS011;53739;44.224;22.528;2024-03-02T11:18:10;22.42;;;13.18;;
66830;SDS011;53739;44.224;22.528;2024-03-02T11:20:38;33.10;;;16.02;;
66830;SDS011;53739;44.224;22.528;2024-03-02T11:23:05;22.60;;;13.35;;
66830;SDS011;53739;44.224;22.528;2024-03-02T11:25:31;21.63;;;11.57;;
66830;SDS011;53739;44.224;22.528;2024-03-02T11:38:50;31.45;;;15.05;;
66830;SDS011;53739;44.224;22.528;2024-03-02T12:30:57;52.35;;;25.77;;
66830;SDS011;53739;44.224;22.528;2024-03-02T12:33:23;67.05;;;31.10;;
66830;SDS011;53739;44.224;22.528;2024-03-02T12:35:49;42.20;;;23.05;;
66830;SDS011;53739;44.224;22.528;2024-03-02T12:38:25;45.80;;;21.42;;
66830;SDS011;53739;44.224;22.528;2024-03-02T12:43:52;68.32;;;35.28;;
66830;SDS011;53739;44.224;22.528;2024-03-02T12:46:19;43.72;;;22.40;;
66830;SDS011;53739;44.224;22.528;2024-03-02T12:48:45;37.90;;;18.25;;
66830;SDS011;53739;44.224;22.528;2024-03-02T12:51:11;66.30;;;34.85;;
66830;SDS011;53739;44.224;22.528;2024-03-02T12:53:37;118.20;;;54.83;;
66830;SDS011;53739;44.224;22.528;2024-03-02T12:56:04;200.63;;;89.13;;
66830;SDS011;53739;44.224;22.528;2024-03-02T12:58:42;78.45;;;45.40;;
66830;SDS011;53739;44.224;22.528;2024-03-02T13:01:27;69.03;;;40.42;;
66830;SDS011;53739;44.224;22.528;2024-03-02T13:04:00;89.55;;;50.63;;
66830;SDS011;53739;44.224;22.528;2024-03-02T13:06:28;66.45;;;37.53;;
66830;SDS011;53739;44.224;22.528;2024-03-02T13:08:54;81.13;;;47.97;;
66830;SDS011;53739;44.224;22.528;2024-03-02T13:11:22;124.97;;;70.78;;
66830;SDS011;53739;44.224;22.528;2024-03-02T13:16:51;96.32;;;45.50;;
66830;SDS011;53739;44.224;22.528;2024-03-02T13:19:18;90.07;;;40.92;;
66830;SDS011;53739;44.224;22.528;2024-03-02T14:01:17;25.05;;;12.90;;
66830;SDS011;53739;44.224;22.528;2024-03-02T14:03:43;33.80;;;18.45;;
66830;SDS011;53739;44.224;22.528;2024-03-02T14:06:18;103.38;;;48.38;;
66830;SDS011;53739;44.224;22.528;2024-03-02T14:08:45;136.48;;;63.47;;
66830;SDS011;53739;44.224;22.528;2024-03-02T14:11:13;146.43;;;62.38;;
66830;SDS011;53739;44.224;22.528;2024-03-02T14:13:41;263.42;;;89.10;;
66830;SDS011;53739;44.224;22.528;2024-03-02T14:16:09;203.98;;;78.35;;
66830;SDS011;53739;44.224;22.528;2024-03-02T14:18:35;70.30;;;40.63;;
66830;SDS011;53739;44.224;22.528;2024-03-02T14:21:01;126.47;;;57.75;;
66830;SDS011;53739;44.224;22.528;2024-03-02T14:23:28;59.28;;;35.47;;
66830;SDS011;53739;44.224;22.528;2024-03-02T14:25:55;50.28;;;27.60;;
66830;SDS011;53739;44.224;22.528;2024-03-02T14:28:22;36.03;;;25.02;;
66830;SDS011;53739;44.224;22.528;2024-03-02T14:30:48;79.88;;;51.95;;
66830;SDS011;53739;44.224;22.528;2024-03-02T14:33:15;88.15;;;45.35;;
66830;SDS011;53739;44.224;22.528;2024-03-02T14:35:42;81.70;;;41.10;;
66830;SDS011;53739;44.224;22.528;2024-03-02T14:38:08;79.43;;;35.92;;
66830;SDS011;53739;44.224;22.528;2024-03-02T14:40:34;127.25;;;53.58;;
66830;SDS011;53739;44.224;22.528;2024-03-02T14:43:00;142.75;;;57.88;;
66830;SDS011;53739;44.224;22.528;2024-03-02T14:45:26;226.68;;;90.63;;
66830;SDS011;53739;44.224;22.528;2024-03-02T14:47:53;238.00;;;88.13;;
66830;SDS011;53739;44.224;22.528;2024-03-02T14:50:19;337.17;;;127.97;;
66830;SDS011;53739;44.224;22.528;2024-03-02T14:52:45;212.43;;;81.00;;
66830;SDS011;53739;44.224;22.528;2024-03-02T14:55:11;131.00;;;56.20;;
66830;SDS011;53739;44.224;22.528;2024-03-02T14:57:38;512.92;;;218.32;;
66830;SDS011;53739;44.224;22.528;2024-03-02T15:00:05;208.10;;;91.68;;
66830;SDS011;53739;44.224;22.528;2024-03-02T15:02:39;348.63;;;129.10;;
66830;SDS011;53739;44.224;22.528;2024-03-02T15:05:05;107.10;;;45.92;;
66830;SDS011;53739;44.224;22.528;2024-03-02T15:07:33;160.85;;;64.13;;
66830;SDS011;53739;44.224;22.528;2024-03-02T15:09:59;45.78;;;23.85;;
66830;SDS011;53739;44.224;22.528;2024-03-02T15:12:25;124.50;;;50.83;;
66830;SDS011;53739;44.224;22.528;2024-03-02T15:17:55;67.57;;;44.47;;
66830;SDS011;53739;44.224;22.528;2024-03-02T15:20:24;44.97;;;23.05;;
66830;SDS011;53739;44.224;22.528;2024-03-02T15:23:03;48.20;;;27.05;;
66830;SDS011;53739;44.224;22.528;2024-03-02T15:25:41;56.63;;;29.98;;
66830;SDS011;53739;44.224;22.528;2024-03-02T15:28:16;66.63;;;33.72;;
66830;SDS011;53739;44.224;22.528;2024-03-02T15:34:11;54.33;;;32.03;;
66830;SDS011;53739;44.224;22.528;2024-03-02T15:36:37;44.45;;;23.67;;
66830;SDS011;53739;44.224;22.528;2024-03-02T15:39:13;105.95;;;44.53;;
66830;SDS011;53739;44.224;22.528;2024-03-02T15:41:43;85.00;;;38.83;;
66830;SDS011;53739;44.224;22.528;2024-03-02T15:44:10;65.40;;;30.42;;
66830;SDS011;53739;44.224;22.528;2024-03-02T15:49:54;43.67;;;23.33;;
66830;SDS011;53739;44.224;22.528;2024-03-02T15:58:34;49.83;;;26.63;;
66830;SDS011;53739;44.224;22.528;2024-03-02T16:01:02;47.83;;;25.98;;
66830;SDS011;53739;44.224;22.528;2024-03-02T16:03:28;41.58;;;22.60;;
66830;SDS011;53739;44.224;22.528;2024-03-02T16:05:56;40.65;;;22.75;;
66830;SDS011;53739;44.224;22.528;2024-03-02T16:08:22;41.38;;;20.90;;
66830;SDS011;53739;44.224;22.528;2024-03-02T16:10:48;50.78;;;24.95;;
66830;SDS011;53739;44.224;22.528;2024-03-02T16:13:24;42.70;;;24.05;;
66830;SDS011;53739;44.224;22.528;2024-03-02T16:15:53;37.03;;;22.50;;
66830;SDS011;53739;44.224;22.528;2024-03-02T16:18:19;40.90;;;24.00;;
66830;SDS011;53739;44.224;22.528;2024-03-02T16:20:45;47.97;;;25.48;;
66830;SDS011;53739;44.224;22.528;2024-03-02T16:23:12;50.15;;;26.55;;
66830;SDS011;53739;44.224;22.528;2024-03-02T16:25:38;57.47;;;29.40;;
66830;SDS011;53739;44.224;22.528;2024-03-02T16:28:06;64.32;;;32.85;;